sensor_id;sensor_type;location;lat;lon;timestamp;P1;durP1;ratioP1;P2;durP2;ratioP2
55031;SDS011;40928;51.076;7.950;2024-03-07T00:01:01;24.35;;;11.10;;
55031;SDS011;40928;51.076;7.950;2024-03-07T00:03:27;23.17;;;11.57;;
55031;SDS011;40928;51.076;7.950;2024-03-07T00:05:57;26.73;;;11.82;;
55031;SDS011;40928;51.076;7.950;2024-03-07T00:08:23;26.20;;;11.63;;
55031;SDS011;40928;51.076;7.950;2024-03-07T00:10:48;28.63;;;12.18;;
55031;SDS011;40928;51.076;7.950;2024-03-07T00:13:14;29.95;;;12.20;;
55031;SDS011;40928;51.076;7.950;2024-03-07T00:15:41;26.10;;;11.35;;
55031;SDS011;40928;51.076;7.950;2024-03-07T00:18:07;26.27;;;10.75;;
55031;SDS011;40928;51.076;7.950;2024-03-07T00:20:39;23.63;;;10.80;;
55031;SDS011;40928;51.076;7.950;2024-03-07T00:23:04;24.17;;;11.20;;
55031;SDS011;40928;51.076;7.950;2024-03-07T00:25:31;27.10;;;11.68;;
55031;SDS011;40928;51.076;7.950;2024-03-07T00:27:57;28.00;;;11.90;;
55031;SDS011;40928;51.076;7.950;2024-03-07T00:30:28;25.17;;;11.10;;
55031;SDS011;40928;51.076;7.950;2024-03-07T00:32:57;22.48;;;10.52;;
55031;SDS011;40928;51.076;7.950;2024-03-07T00:35:24;26.83;;;11.07;;
55031;SDS011;40928;51.076;7.950;2024-03-07T00:37:50;26.42;;;11.20;;
55031;SDS011;40928;51.076;7.950;2024-03-07T00:40:16;24.35;;;10.70;;
55031;SDS011;40928;51.076;7.950;2024-03-07T00:42:41;27.95;;;11.40;;
55031;SDS011;40928;51.076;7.950;2024-03-07T00:45:07;23.27;;;9.27;;
55031;SDS011;40928;51.076;7.950;2024-03-07T00:47:33;27.83;;;11.15;;
55031;SDS011;40928;51.076;7.950;2024-03-07T00:49:59;22.45;;;9.85;;
55031;SDS011;40928;51.076;7.950;2024-03-07T00:52:26;20.85;;;9.10;;
55031;SDS011;40928;51.076;7.950;2024-03-07T00:54:52;17.85;;;9.40;;
55031;SDS011;40928;51.076;7.950;2024-03-07T00:57:17;21.98;;;10.05;;
55031;SDS011;40928;51.076;7.950;2024-03-07T00:59:43;20.15;;;8.52;;
55031;SDS011;40928;51.076;7.950;2024-03-07T01:02:09;26.88;;;10.32;;
55031;SDS011;40928;51.076;7.950;2024-03-07T01:04:34;20.33;;;9.20;;
55031;SDS011;40928;51.076;7.950;2024-03-07T01:07:00;22.00;;;9.48;;
55031;SDS011;40928;51.076;7.950;2024-03-07T01:09:26;21.65;;;10.00;;
55031;SDS011;40928;51.076;7.950;2024-03-07T01:11:56;23.58;;;9.50;;
55031;SDS011;40928;51.076;7.950;2024-03-07T01:14:22;24.70;;;10.60;;
55031;SDS011;40928;51.076;7.950;2024-03-07T01:16:48;22.05;;;9.52;;
55031;SDS011;40928;51.076;7.950;2024-03-07T01:19:13;23.33;;;10.32;;
55031;SDS011;40928;51.076;7.950;2024-03-07T01:21:40;21.27;;;9.30;;
55031;SDS011;40928;51.076;7.950;2024-03-07T01:24:06;23.48;;;9.32;;
55031;SDS011;40928;51.076;7.950;2024-03-07T01:26:31;20.80;;;9.25;;
55031;SDS011;40928;51.076;7.950;2024-03-07T01:28:58;25.60;;;10.95;;
55031;SDS011;40928;51.076;7.950;2024-03-07T01:31:24;23.80;;;10.85;;
55031;SDS011;40928;51.076;7.950;2024-03-07T01:33:50;23.25;;;10.40;;
55031;SDS011;40928;51.076;7.950;2024-03-07T01:36:17;26.88;;;10.70;;
55031;SDS011;40928;51.076;7.950;2024-03-07T01:38:46;27.70;;;10.90;;
55031;SDS011;40928;51.076;7.950;2024-03-07T01:41:15;23.77;;;9.88;;
55031;SDS011;40928;51.076;7.950;2024-03-07T01:43:44;23.27;;;10.27;;
55031;SDS011;40928;51.076;7.950;2024-03-07T01:46:10;23.20;;;10.90;;
55031;SDS011;40928;51.076;7.950;2024-03-07T01:48:36;22.52;;;10.25;;
55031;SDS011;40928;51.076;7.950;2024-03-07T01:51:03;22.20;;;10.18;;
55031;SDS011;40928;51.076;7.950;2024-03-07T01:53:30;24.90;;;10.32;;
55031;SDS011;40928;51.076;7.950;2024-03-07T01:55:56;26.75;;;11.63;;
55031;SDS011;40928;51.076;7.950;2024-03-07T01:58:24;25.23;;;10.50;;
55031;SDS011;40928;51.076;7.950;2024-03-07T02:00:49;29.52;;;12.02;;
55031;SDS011;40928;51.076;7.950;2024-03-07T02:03:16;29.70;;;11.68;;
55031;SDS011;40928;51.076;7.950;2024-03-07T02:05:43;23.60;;;10.95;;
55031;SDS011;40928;51.076;7.950;2024-03-07T02:08:11;22.13;;;10.73;;
55031;SDS011;40928;51.076;7.950;2024-03-07T02:10:36;22.63;;;9.25;;
55031;SDS011;40928;51.076;7.950;2024-03-07T02:13:04;25.35;;;10.35;;
55031;SDS011;40928;51.076;7.950;2024-03-07T02:15:30;26.45;;;10.30;;
55031;SDS011;40928;51.076;7.950;2024-03-07T02:17:55;23.00;;;9.45;;
55031;SDS011;40928;51.076;7.950;2024-03-07T02:20:22;26.70;;;10.73;;
55031;SDS011;40928;51.076;7.950;2024-03-07T02:22:49;22.42;;;9.65;;
55031;SDS011;40928;51.076;7.950;2024-03-07T02:25:16;21.98;;;9.95;;
55031;SDS011;40928;51.076;7.950;2024-03-07T02:27:42;22.20;;;9.27;;
55031;SDS011;40928;51.076;7.950;2024-03-07T02:30:08;22.98;;;9.77;;
55031;SDS011;40928;51.076;7.950;2024-03-07T02:32:34;20.08;;;9.00;;
55031;SDS011;40928;51.076;7.950;2024-03-07T02:35:02;24.40;;;9.35;;
55031;SDS011;40928;51.076;7.950;2024-03-07T02:37:31;17.40;;;8.40;;
55031;SDS011;40928;51.076;7.950;2024-03-07T02:39:57;32.88;;;10.73;;
55031;SDS011;40928;51.076;7.950;2024-03-07T02:42:24;21.30;;;9.40;;
55031;SDS011;40928;51.076;7.950;2024-03-07T02:44:49;24.17;;;9.48;;
55031;SDS011;40928;51.076;7.950;2024-03-07T02:47:15;26.70;;;10.57;;
55031;SDS011;40928;51.076;7.950;2024-03-07T02:49:41;26.52;;;10.63;;
55031;SDS011;40928;51.076;7.950;2024-03-07T02:52:10;22.40;;;9.05;;
55031;SDS011;40928;51.076;7.950;2024-03-07T02:54:36;25.25;;;10.13;;
55031;SDS011;40928;51.076;7.950;2024-03-07T02:57:01;21.98;;;9.65;;
55031;SDS011;40928;51.076;7.950;2024-03-07T02:59:27;24.85;;;9.85;;
55031;SDS011;40928;51.076;7.950;2024-03-07T03:01:53;24.73;;;9.32;;
55031;SDS011;40928;51.076;7.950;2024-03-07T03:04:18;22.33;;;9.35;;
55031;SDS011;40928;51.076;7.950;2024-03-07T03:06:44;21.33;;;8.48;;
55031;SDS011;40928;51.076;7.950;2024-03-07T03:09:11;24.38;;;10.05;;
55031;SDS011;40928;51.076;7.950;2024-03-07T03:11:45;21.30;;;9.45;;
55031;SDS011;40928;51.076;7.950;2024-03-07T03:14:12;22.92;;;9.00;;
55031;SDS011;40928;51.076;7.950;2024-03-07T03:16:41;24.90;;;10.80;;
55031;SDS011;40928;51.076;7.950;2024-03-07T03:19:11;25.70;;;9.63;;
55031;SDS011;40928;51.076;7.950;2024-03-07T03:21:36;24.83;;;11.05;;
55031;SDS011;40928;51.076;7.950;2024-03-07T03:24:03;23.30;;;9.95;;
55031;SDS011;40928;51.076;7.950;2024-03-07T03:26:29;21.58;;;8.75;;
55031;SDS011;40928;51.076;7.950;2024-03-07T03:28:57;20.95;;;9.40;;
55031;SDS011;40928;51.076;7.950;2024-03-07T03:31:22;21.13;;;10.32;;
55031;SDS011;40928;51.076;7.950;2024-03-07T03:33:48;26.27;;;10.65;;
55031;SDS011;40928;51.076;7.950;2024-03-07T03:36:14;27.00;;;10.25;;
55031;SDS011;40928;51.076;7.950;2024-03-07T03:38:40;32.08;;;10.30;;
55031;SDS011;40928;51.076;7.950;2024-03-07T03:41:06;24.20;;;9.80;;
55031;SDS011;40928;51.076;7.950;2024-03-07T03:43:32;23.15;;;9.60;;
55031;SDS011;40928;51.076;7.950;2024-03-07T03:45:57;20.83;;;8.57;;
55031;SDS011;40928;51.076;7.950;2024-03-07T03:48:23;23.83;;;10.15;;
55031;SDS011;40928;51.076;7.950;2024-03-07T03:50:49;19.15;;;8.88;;
55031;SDS011;40928;51.076;7.950;2024-03-07T03:53:14;26.17;;;10.93;;
55031;SDS011;40928;51.076;7.950;2024-03-07T03:55:40;20.95;;;10.65;;
55031;SDS011;40928;51.076;7.950;2024-03-07T03:58:06;22.83;;;10.75;;
55031;SDS011;40928;51.076;7.950;2024-03-07T04:00:31;25.77;;;9.50;;
55031;SDS011;40928;51.076;7.950;2024-03-07T04:02:57;27.67;;;10.02;;
55031;SDS011;40928;51.076;7.950;2024-03-07T04:05:23;23.38;;;10.18;;
55031;SDS011;40928;51.076;7.950;2024-03-07T04:07:48;23.83;;;9.88;;
55031;SDS011;40928;51.076;7.950;2024-03-07T04:10:14;27.38;;;10.85;;
55031;SDS011;40928;51.076;7.950;2024-03-07T04:12:41;27.17;;;11.07;;
55031;SDS011;40928;51.076;7.950;2024-03-07T04:15:08;24.50;;;9.88;;
55031;SDS011;40928;51.076;7.950;2024-03-07T04:17:35;22.15;;;9.18;;
55031;SDS011;40928;51.076;7.950;2024-03-07T04:20:02;27.20;;;11.07;;
55031;SDS011;40928;51.076;7.950;2024-03-07T04:22:32;21.25;;;10.05;;
55031;SDS011;40928;51.076;7.950;2024-03-07T04:24:58;24.27;;;11.65;;
55031;SDS011;40928;51.076;7.950;2024-03-07T04:27:24;24.92;;;10.15;;
55031;SDS011;40928;51.076;7.950;2024-03-07T04:29:51;24.45;;;10.77;;
55031;SDS011;40928;51.076;7.950;2024-03-07T04:32:17;28.90;;;11.65;;
55031;SDS011;40928;51.076;7.950;2024-03-07T04:34:43;24.60;;;10.48;;
55031;SDS011;40928;51.076;7.950;2024-03-07T04:37:10;20.65;;;9.82;;
55031;SDS011;40928;51.076;7.950;2024-03-07T04:39:36;20.25;;;8.25;;
55031;SDS011;40928;51.076;7.950;2024-03-07T04:42:02;24.00;;;10.18;;
55031;SDS011;40928;51.076;7.950;2024-03-07T04:44:29;23.48;;;10.43;;
55031;SDS011;40928;51.076;7.950;2024-03-07T04:46:55;26.92;;;10.95;;
55031;SDS011;40928;51.076;7.950;2024-03-07T04:49:22;26.27;;;11.65;;
55031;SDS011;40928;51.076;7.950;2024-03-07T04:51:49;25.70;;;11.43;;
55031;SDS011;40928;51.076;7.950;2024-03-07T04:54:19;28.20;;;11.90;;
55031;SDS011;40928;51.076;7.950;2024-03-07T04:56:46;23.30;;;11.43;;
55031;SDS011;40928;51.076;7.950;2024-03-07T04:59:12;22.20;;;10.40;;
55031;SDS011;40928;51.076;7.950;2024-03-07T05:01:41;28.45;;;11.18;;
55031;SDS011;40928;51.076;7.950;2024-03-07T05:04:06;24.77;;;11.07;;
55031;SDS011;40928;51.076;7.950;2024-03-07T05:06:32;26.05;;;11.07;;
55031;SDS011;40928;51.076;7.950;2024-03-07T05:11:35;24.00;;;10.60;;
55031;SDS011;40928;51.076;7.950;2024-03-07T05:14:02;23.17;;;10.25;;
55031;SDS011;40928;51.076;7.950;2024-03-07T05:16:28;27.33;;;10.68;;
55031;SDS011;40928;51.076;7.950;2024-03-07T05:18:55;29.02;;;11.05;;
55031;SDS011;40928;51.076;7.950;2024-03-07T05:21:27;25.13;;;11.35;;
55031;SDS011;40928;51.076;7.950;2024-03-07T05:24:02;24.65;;;11.00;;
55031;SDS011;40928;51.076;7.950;2024-03-07T05:26:33;23.08;;;9.02;;
55031;SDS011;40928;51.076;7.950;2024-03-07T05:29:05;27.00;;;12.23;;
55031;SDS011;40928;51.076;7.950;2024-03-07T05:31:34;24.25;;;11.38;;
55031;SDS011;40928;51.076;7.950;2024-03-07T05:34:04;26.58;;;12.65;;
55031;SDS011;40928;51.076;7.950;2024-03-07T05:36:33;30.10;;;12.57;;
55031;SDS011;40928;51.076;7.950;2024-03-07T05:39:00;23.70;;;10.45;;
55031;SDS011;40928;51.076;7.950;2024-03-07T05:41:28;27.77;;;12.15;;
55031;SDS011;40928;51.076;7.950;2024-03-07T05:43:57;25.83;;;11.90;;
55031;SDS011;40928;51.076;7.950;2024-03-07T05:46:23;33.35;;;13.63;;
55031;SDS011;40928;51.076;7.950;2024-03-07T05:48:48;41.67;;;14.63;;
55031;SDS011;40928;51.076;7.950;2024-03-07T05:51:18;30.58;;;13.35;;
55031;SDS011;40928;51.076;7.950;2024-03-07T05:53:43;32.67;;;12.80;;
55031;SDS011;40928;51.076;7.950;2024-03-07T05:56:09;28.92;;;13.15;;
55031;SDS011;40928;51.076;7.950;2024-03-07T05:58:35;33.78;;;13.20;;
55031;SDS011;40928;51.076;7.950;2024-03-07T06:01:00;27.98;;;11.20;;
55031;SDS011;40928;51.076;7.950;2024-03-07T06:03:26;30.95;;;13.38;;
55031;SDS011;40928;51.076;7.950;2024-03-07T06:05:52;27.10;;;13.85;;
55031;SDS011;40928;51.076;7.950;2024-03-07T06:08:19;24.25;;;12.15;;
55031;SDS011;40928;51.076;7.950;2024-03-07T06:10:45;32.00;;;13.32;;
55031;SDS011;40928;51.076;7.950;2024-03-07T06:13:11;30.58;;;12.68;;
55031;SDS011;40928;51.076;7.950;2024-03-07T06:15:38;24.25;;;12.30;;
55031;SDS011;40928;51.076;7.950;2024-03-07T06:18:05;30.52;;;12.30;;
55031;SDS011;40928;51.076;7.950;2024-03-07T06:20:32;34.10;;;13.25;;
55031;SDS011;40928;51.076;7.950;2024-03-07T06:22:57;35.65;;;13.10;;
55031;SDS011;40928;51.076;7.950;2024-03-07T06:25:28;29.08;;;11.80;;
55031;SDS011;40928;51.076;7.950;2024-03-07T06:28:03;29.50;;;12.65;;
55031;SDS011;40928;51.076;7.950;2024-03-07T06:30:39;25.48;;;11.35;;
55031;SDS011;40928;51.076;7.950;2024-03-07T06:33:07;31.35;;;12.73;;
55031;SDS011;40928;51.076;7.950;2024-03-07T06:35:33;30.70;;;10.98;;
55031;SDS011;40928;51.076;7.950;2024-03-07T06:38:05;30.95;;;11.65;;
55031;SDS011;40928;51.076;7.950;2024-03-07T06:40:34;29.98;;;13.07;;
55031;SDS011;40928;51.076;7.950;2024-03-07T06:43:05;34.65;;;14.73;;
55031;SDS011;40928;51.076;7.950;2024-03-07T06:45:33;32.53;;;13.75;;
55031;SDS011;40928;51.076;7.950;2024-03-07T06:47:59;28.98;;;13.45;;
55031;SDS011;40928;51.076;7.950;2024-03-07T06:50:26;31.00;;;13.10;;
55031;SDS011;40928;51.076;7.950;2024-03-07T06:52:54;30.67;;;14.18;;
55031;SDS011;40928;51.076;7.950;2024-03-07T06:55:21;33.17;;;14.00;;
55031;SDS011;40928;51.076;7.950;2024-03-07T06:57:48;31.83;;;12.48;;
55031;SDS011;40928;51.076;7.950;2024-03-07T07:00:14;29.35;;;13.52;;
55031;SDS011;40928;51.076;7.950;2024-03-07T07:02:48;26.70;;;12.93;;
55031;SDS011;40928;51.076;7.950;2024-03-07T07:05:15;31.25;;;13.15;;
55031;SDS011;40928;51.076;7.950;2024-03-07T07:07:49;32.50;;;14.57;;
55031;SDS011;40928;51.076;7.950;2024-03-07T07:10:18;29.17;;;11.88;;
55031;SDS011;40928;51.076;7.950;2024-03-07T07:12:46;25.83;;;11.60;;
55031;SDS011;40928;51.076;7.950;2024-03-07T07:18:18;34.03;;;12.70;;
55031;SDS011;40928;51.076;7.950;2024-03-07T07:20:44;26.67;;;11.77;;
55031;SDS011;40928;51.076;7.950;2024-03-07T07:23:10;30.40;;;14.60;;
55031;SDS011;40928;51.076;7.950;2024-03-07T07:25:35;31.48;;;14.18;;
55031;SDS011;40928;51.076;7.950;2024-03-07T07:28:02;27.52;;;12.60;;
55031;SDS011;40928;51.076;7.950;2024-03-07T07:30:30;30.30;;;14.13;;
55031;SDS011;40928;51.076;7.950;2024-03-07T07:32:55;29.10;;;13.50;;
55031;SDS011;40928;51.076;7.950;2024-03-07T07:35:21;30.77;;;13.88;;
55031;SDS011;40928;51.076;7.950;2024-03-07T07:37:48;39.25;;;14.10;;
55031;SDS011;40928;51.076;7.950;2024-03-07T07:40:19;29.92;;;14.77;;
55031;SDS011;40928;51.076;7.950;2024-03-07T07:42:48;28.88;;;12.93;;
55031;SDS011;40928;51.076;7.950;2024-03-07T07:45:17;32.25;;;14.10;;
55031;SDS011;40928;51.076;7.950;2024-03-07T07:47:45;29.67;;;13.95;;
55031;SDS011;40928;51.076;7.950;2024-03-07T07:50:15;35.90;;;13.95;;
55031;SDS011;40928;51.076;7.950;2024-03-07T07:55:20;31.13;;;14.68;;
55031;SDS011;40928;51.076;7.950;2024-03-07T07:57:48;34.28;;;15.35;;
55031;SDS011;40928;51.076;7.950;2024-03-07T08:00:22;35.03;;;16.48;;
55031;SDS011;40928;51.076;7.950;2024-03-07T08:05:17;36.50;;;15.45;;
55031;SDS011;40928;51.076;7.950;2024-03-07T08:07:45;36.67;;;15.43;;
55031;SDS011;40928;51.076;7.950;2024-03-07T08:10:11;41.22;;;14.27;;
55031;SDS011;40928;51.076;7.950;2024-03-07T08:12:37;37.28;;;15.80;;
55031;SDS011;40928;51.076;7.950;2024-03-07T08:15:03;32.88;;;15.48;;
55031;SDS011;40928;51.076;7.950;2024-03-07T08:17:30;34.65;;;15.35;;
55031;SDS011;40928;51.076;7.950;2024-03-07T08:19:56;27.02;;;14.23;;
55031;SDS011;40928;51.076;7.950;2024-03-07T08:22:22;30.02;;;14.32;;
55031;SDS011;40928;51.076;7.950;2024-03-07T08:24:49;32.33;;;15.20;;
55031;SDS011;40928;51.076;7.950;2024-03-07T08:27:15;29.30;;;15.23;;
55031;SDS011;40928;51.076;7.950;2024-03-07T08:29:41;38.08;;;17.90;;
55031;SDS011;40928;51.076;7.950;2024-03-07T08:32:07;36.47;;;16.10;;
55031;SDS011;40928;51.076;7.950;2024-03-07T08:34:32;43.38;;;18.13;;
55031;SDS011;40928;51.076;7.950;2024-03-07T08:36:58;35.92;;;16.75;;
55031;SDS011;40928;51.076;7.950;2024-03-07T08:39:24;44.85;;;21.73;;
55031;SDS011;40928;51.076;7.950;2024-03-07T08:41:50;37.42;;;18.35;;
55031;SDS011;40928;51.076;7.950;2024-03-07T08:44:15;33.47;;;15.88;;
55031;SDS011;40928;51.076;7.950;2024-03-07T08:46:42;44.38;;;18.98;;
55031;SDS011;40928;51.076;7.950;2024-03-07T08:49:08;37.53;;;18.63;;
55031;SDS011;40928;51.076;7.950;2024-03-07T08:51:36;35.15;;;17.05;;
55031;SDS011;40928;51.076;7.950;2024-03-07T08:54:02;38.60;;;17.77;;
55031;SDS011;40928;51.076;7.950;2024-03-07T08:56:27;32.15;;;15.07;;
55031;SDS011;40928;51.076;7.950;2024-03-07T08:58:53;37.92;;;16.20;;
55031;SDS011;40928;51.076;7.950;2024-03-07T09:01:19;32.78;;;15.35;;
55031;SDS011;40928;51.076;7.950;2024-03-07T09:03:45;29.38;;;14.65;;
55031;SDS011;40928;51.076;7.950;2024-03-07T09:06:11;34.70;;;16.20;;
55031;SDS011;40928;51.076;7.950;2024-03-07T09:08:38;34.30;;;14.50;;
55031;SDS011;40928;51.076;7.950;2024-03-07T09:11:04;30.88;;;15.23;;
55031;SDS011;40928;51.076;7.950;2024-03-07T09:13:30;30.02;;;13.45;;
55031;SDS011;40928;51.076;7.950;2024-03-07T09:15:55;28.00;;;13.30;;
55031;SDS011;40928;51.076;7.950;2024-03-07T09:18:21;28.83;;;14.57;;
55031;SDS011;40928;51.076;7.950;2024-03-07T09:20:49;31.48;;;13.65;;
55031;SDS011;40928;51.076;7.950;2024-03-07T09:23:15;29.55;;;13.00;;
55031;SDS011;40928;51.076;7.950;2024-03-07T09:25:41;30.05;;;12.50;;
55031;SDS011;40928;51.076;7.950;2024-03-07T09:28:08;27.92;;;12.35;;
55031;SDS011;40928;51.076;7.950;2024-03-07T09:30:34;26.02;;;11.07;;
55031;SDS011;40928;51.076;7.950;2024-03-07T09:33:03;31.75;;;13.82;;
55031;SDS011;40928;51.076;7.950;2024-03-07T09:35:29;26.60;;;13.00;;
55031;SDS011;40928;51.076;7.950;2024-03-07T09:37:54;24.35;;;12.50;;
55031;SDS011;40928;51.076;7.950;2024-03-07T09:40:21;27.75;;;12.98;;
55031;SDS011;40928;51.076;7.950;2024-03-07T09:42:50;30.33;;;12.18;;
55031;SDS011;40928;51.076;7.950;2024-03-07T09:45:21;28.17;;;11.88;;
55031;SDS011;40928;51.076;7.950;2024-03-07T09:47:53;29.42;;;12.55;;
55031;SDS011;40928;51.076;7.950;2024-03-07T09:50:19;28.65;;;11.75;;
55031;SDS011;40928;51.076;7.950;2024-03-07T09:52:49;23.25;;;11.60;;
55031;SDS011;40928;51.076;7.950;2024-03-07T09:55:15;21.42;;;11.15;;
55031;SDS011;40928;51.076;7.950;2024-03-07T09:57:47;20.08;;;9.00;;
55031;SDS011;40928;51.076;7.950;2024-03-07T10:00:15;20.85;;;9.90;;
55031;SDS011;40928;51.076;7.950;2024-03-07T10:02:53;20.90;;;9.48;;
55031;SDS011;40928;51.076;7.950;2024-03-07T10:05:22;17.00;;;8.57;;
55031;SDS011;40928;51.076;7.950;2024-03-07T10:07:50;16.13;;;8.57;;
55031;SDS011;40928;51.076;7.950;2024-03-07T10:10:17;18.08;;;9.13;;
55031;SDS011;40928;51.076;7.950;2024-03-07T10:12:44;20.30;;;9.70;;
55031;SDS011;40928;51.076;7.950;2024-03-07T10:15:10;18.27;;;8.45;;
55031;SDS011;40928;51.076;7.950;2024-03-07T10:17:41;15.45;;;7.53;;
55031;SDS011;40928;51.076;7.950;2024-03-07T10:20:08;17.38;;;7.72;;
55031;SDS011;40928;51.076;7.950;2024-03-07T10:22:39;16.02;;;7.55;;
55031;SDS011;40928;51.076;7.950;2024-03-07T10:25:06;14.15;;;7.95;;
55031;SDS011;40928;51.076;7.950;2024-03-07T10:27:33;15.32;;;7.85;;
55031;SDS011;40928;51.076;7.950;2024-03-07T10:30:05;16.40;;;8.02;;
55031;SDS011;40928;51.076;7.950;2024-03-07T10:32:32;14.02;;;8.15;;
55031;SDS011;40928;51.076;7.950;2024-03-07T10:34:58;14.25;;;7.47;;
55031;SDS011;40928;51.076;7.950;2024-03-07T10:37:24;16.92;;;8.55;;
55031;SDS011;40928;51.076;7.950;2024-03-07T10:39:51;19.85;;;8.85;;
55031;SDS011;40928;51.076;7.950;2024-03-07T10:42:17;19.55;;;8.13;;
55031;SDS011;40928;51.076;7.950;2024-03-07T10:44:44;15.50;;;7.93;;
55031;SDS011;40928;51.076;7.950;2024-03-07T10:47:16;16.77;;;8.02;;
55031;SDS011;40928;51.076;7.950;2024-03-07T10:49:47;14.48;;;8.35;;
55031;SDS011;40928;51.076;7.950;2024-03-07T10:52:29;13.88;;;8.32;;
55031;SDS011;40928;51.076;7.950;2024-03-07T10:58:09;17.10;;;7.95;;
55031;SDS011;40928;51.076;7.950;2024-03-07T11:00:43;14.02;;;8.00;;
55031;SDS011;40928;51.076;7.950;2024-03-07T11:03:13;13.88;;;7.53;;
55031;SDS011;40928;51.076;7.950;2024-03-07T11:05:40;15.75;;;8.40;;
55031;SDS011;40928;51.076;7.950;2024-03-07T11:08:08;15.20;;;7.72;;
55031;SDS011;40928;51.076;7.950;2024-03-07T11:10:38;14.07;;;7.88;;
55031;SDS011;40928;51.076;7.950;2024-03-07T11:13:06;15.55;;;8.27;;
55031;SDS011;40928;51.076;7.950;2024-03-07T11:15:39;17.05;;;8.60;;
55031;SDS011;40928;51.076;7.950;2024-03-07T11:18:08;18.15;;;8.02;;
55031;SDS011;40928;51.076;7.950;2024-03-07T11:20:38;15.32;;;8.32;;
55031;SDS011;40928;51.076;7.950;2024-03-07T11:26:10;17.23;;;8.85;;
55031;SDS011;40928;51.076;7.950;2024-03-07T11:28:38;14.73;;;7.70;;
55031;SDS011;40928;51.076;7.950;2024-03-07T11:31:15;15.20;;;8.15;;
55031;SDS011;40928;51.076;7.950;2024-03-07T11:36:55;15.32;;;8.20;;
55031;SDS011;40928;51.076;7.950;2024-03-07T11:39:40;20.48;;;8.80;;
55031;SDS011;40928;51.076;7.950;2024-03-07T11:47:35;14.20;;;6.80;;
55031;SDS011;40928;51.076;7.950;2024-03-07T11:50:03;14.60;;;7.45;;
55031;SDS011;40928;51.076;7.950;2024-03-07T11:52:36;15.75;;;7.30;;
55031;SDS011;40928;51.076;7.950;2024-03-07T11:55:09;12.52;;;7.45;;
55031;SDS011;40928;51.076;7.950;2024-03-07T11:57:36;12.88;;;7.32;;
55031;SDS011;40928;51.076;7.950;2024-03-07T12:00:03;14.70;;;6.88;;
55031;SDS011;40928;51.076;7.950;2024-03-07T12:02:39;15.52;;;7.82;;
55031;SDS011;40928;51.076;7.950;2024-03-07T12:05:05;17.15;;;8.27;;
55031;SDS011;40928;51.076;7.950;2024-03-07T12:07:32;15.85;;;7.50;;
55031;SDS011;40928;51.076;7.950;2024-03-07T12:09:59;15.93;;;6.45;;
55031;SDS011;40928;51.076;7.950;2024-03-07T12:12:28;12.77;;;7.07;;
55031;SDS011;40928;51.076;7.950;2024-03-07T12:14:55;15.82;;;7.22;;
55031;SDS011;40928;51.076;7.950;2024-03-07T12:17:21;12.18;;;6.18;;
55031;SDS011;40928;51.076;7.950;2024-03-07T12:19:49;15.50;;;6.90;;
55031;SDS011;40928;51.076;7.950;2024-03-07T12:22:19;13.25;;;6.72;;
55031;SDS011;40928;51.076;7.950;2024-03-07T12:24:52;18.02;;;7.50;;
55031;SDS011;40928;51.076;7.950;2024-03-07T12:27:27;15.50;;;8.55;;
55031;SDS011;40928;51.076;7.950;2024-03-07T12:29:53;13.63;;;7.93;;
55031;SDS011;40928;51.076;7.950;2024-03-07T12:32:19;17.58;;;8.02;;
55031;SDS011;40928;51.076;7.950;2024-03-07T12:34:46;15.40;;;6.93;;
55031;SDS011;40928;51.076;7.950;2024-03-07T12:37:12;14.95;;;7.53;;
55031;SDS011;40928;51.076;7.950;2024-03-07T12:39:45;14.93;;;7.28;;
55031;SDS011;40928;51.076;7.950;2024-03-07T12:42:18;17.50;;;7.93;;
55031;SDS011;40928;51.076;7.950;2024-03-07T12:44:45;13.68;;;6.72;;
55031;SDS011;40928;51.076;7.950;2024-03-07T12:47:12;17.63;;;8.25;;
55031;SDS011;40928;51.076;7.950;2024-03-07T12:49:42;15.30;;;7.50;;
55031;SDS011;40928;51.076;7.950;2024-03-07T12:52:08;16.27;;;7.93;;
55031;SDS011;40928;51.076;7.950;2024-03-07T12:54:35;14.73;;;7.47;;
55031;SDS011;40928;51.076;7.950;2024-03-07T12:57:12;16.17;;;7.32;;
55031;SDS011;40928;51.076;7.950;2024-03-07T12:59:58;17.23;;;7.63;;
55031;SDS011;40928;51.076;7.950;2024-03-07T13:02:23;16.60;;;7.60;;
55031;SDS011;40928;51.076;7.950;2024-03-07T13:04:52;20.92;;;8.23;;
55031;SDS011;40928;51.076;7.950;2024-03-07T13:07:18;17.77;;;8.73;;
55031;SDS011;40928;51.076;7.950;2024-03-07T13:09:46;15.45;;;8.05;;
55031;SDS011;40928;51.076;7.950;2024-03-07T13:12:13;16.00;;;7.60;;
55031;SDS011;40928;51.076;7.950;2024-03-07T13:14:41;18.50;;;8.32;;
55031;SDS011;40928;51.076;7.950;2024-03-07T13:17:09;18.08;;;8.40;;
55031;SDS011;40928;51.076;7.950;2024-03-07T13:19:36;21.95;;;9.27;;
55031;SDS011;40928;51.076;7.950;2024-03-07T13:22:03;21.30;;;8.95;;
55031;SDS011;40928;51.076;7.950;2024-03-07T13:24:32;17.88;;;8.07;;
55031;SDS011;40928;51.076;7.950;2024-03-07T13:26:59;19.83;;;8.65;;
55031;SDS011;40928;51.076;7.950;2024-03-07T13:29:24;18.63;;;7.75;;
55031;SDS011;40928;51.076;7.950;2024-03-07T13:31:51;15.73;;;7.57;;
55031;SDS011;40928;51.076;7.950;2024-03-07T13:34:17;16.55;;;7.88;;
55031;SDS011;40928;51.076;7.950;2024-03-07T13:36:44;15.55;;;7.82;;
55031;SDS011;40928;51.076;7.950;2024-03-07T13:39:11;23.95;;;9.55;;
55031;SDS011;40928;51.076;7.950;2024-03-07T13:41:42;19.77;;;8.80;;
55031;SDS011;40928;51.076;7.950;2024-03-07T13:44:13;20.00;;;9.05;;
55031;SDS011;40928;51.076;7.950;2024-03-07T13:46:40;22.65;;;8.50;;
55031;SDS011;40928;51.076;7.950;2024-03-07T13:49:05;20.25;;;8.13;;
55031;SDS011;40928;51.076;7.950;2024-03-07T13:51:42;19.85;;;7.95;;
55031;SDS011;40928;51.076;7.950;2024-03-07T13:54:28;18.05;;;7.40;;
55031;SDS011;40928;51.076;7.950;2024-03-07T13:59:50;17.77;;;8.48;;
55031;SDS011;40928;51.076;7.950;2024-03-07T14:08:26;16.50;;;7.32;;
55031;SDS011;40928;51.076;7.950;2024-03-07T14:26:02;15.10;;;7.60;;
55031;SDS011;40928;51.076;7.950;2024-03-07T14:31:44;19.15;;;8.75;;
55031;SDS011;40928;51.076;7.950;2024-03-07T14:36:47;21.92;;;8.20;;
55031;SDS011;40928;51.076;7.950;2024-03-07T14:39:18;21.98;;;8.27;;
55031;SDS011;40928;51.076;7.950;2024-03-07T14:41:51;18.90;;;8.35;;
55031;SDS011;40928;51.076;7.950;2024-03-07T14:44:20;19.05;;;7.57;;
55031;SDS011;40928;51.076;7.950;2024-03-07T14:46:48;17.38;;;7.90;;
55031;SDS011;40928;51.076;7.950;2024-03-07T14:49:20;23.10;;;7.68;;
55031;SDS011;40928;51.076;7.950;2024-03-07T14:51:48;17.23;;;7.45;;
55031;SDS011;40928;51.076;7.950;2024-03-07T14:54:19;14.52;;;7.50;;
55031;SDS011;40928;51.076;7.950;2024-03-07T14:56:46;18.20;;;7.60;;
55031;SDS011;40928;51.076;7.950;2024-03-07T14:59:13;23.48;;;9.30;;
55031;SDS011;40928;51.076;7.950;2024-03-07T15:01:38;16.30;;;7.82;;
55031;SDS011;40928;51.076;7.950;2024-03-07T15:04:05;16.27;;;7.63;;
55031;SDS011;40928;51.076;7.950;2024-03-07T15:06:38;16.58;;;8.27;;
55031;SDS011;40928;51.076;7.950;2024-03-07T15:09:08;16.23;;;7.68;;
55031;SDS011;40928;51.076;7.950;2024-03-07T15:11:38;19.73;;;7.70;;
55031;SDS011;40928;51.076;7.950;2024-03-07T15:14:09;17.42;;;7.38;;
55031;SDS011;40928;51.076;7.950;2024-03-07T15:16:35;17.50;;;7.85;;
55031;SDS011;40928;51.076;7.950;2024-03-07T15:19:06;19.88;;;7.78;;
55031;SDS011;40928;51.076;7.950;2024-03-07T15:21:33;18.25;;;8.13;;
55031;SDS011;40928;51.076;7.950;2024-03-07T15:23:59;18.13;;;8.00;;
55031;SDS011;40928;51.076;7.950;2024-03-07T15:26:29;15.63;;;7.82;;